sensor_id;sensor_type;location;lat;lon;timestamp;pressure;altitude;pressure_sealevel;temperature;humidity
78117;BME280;67887;59.082;37.928;2023-04-03T00:01:21;99877.16;;;7.43;60.33
78117;BME280;67887;59.082;37.928;2023-04-03T00:03:47;99874.44;;;7.46;60.54
78117;BME280;67887;59.082;37.928;2023-04-03T00:06:13;99875.22;;;7.48;60.07
78117;BME280;67887;59.082;37.928;2023-04-03T00:08:40;99878.53;;;7.54;60.57
78117;BME280;67887;59.082;37.928;2023-04-03T00:11:07;99874.13;;;7.56;60.44
78117;BME280;67887;59.082;37.928;2023-04-03T00:13:33;99883.53;;;7.60;60.38
78117;BME280;67887;59.082;37.928;2023-04-03T00:15:59;99872.16;;;7.62;60.52
78117;BME280;67887;59.082;37.928;2023-04-03T00:18:27;99860.97;;;7.60;60.19
78117;BME280;67887;59.082;37.928;2023-04-03T00:20:53;99870.38;;;7.64;60.20
78117;BME280;67887;59.082;37.928;2023-04-03T00:23:19;99865.97;;;7.66;60.78
78117;BME280;67887;59.082;37.928;2023-04-03T00:25:45;99865.06;;;7.67;60.16
78117;BME280;67887;59.082;37.928;2023-04-03T00:28:12;99868.56;;;7.66;60.42
78117;BME280;67887;59.082;37.928;2023-04-03T00:30:38;99877.25;;;7.65;60.05
78117;BME280;67887;59.082;37.928;2023-04-03T00:33:04;99865.31;;;7.60;60.61
78117;BME280;67887;59.082;37.928;2023-04-03T00:35:30;99867.88;;;7.61;60.45
78117;BME280;67887;59.082;37.928;2023-04-03T00:37:57;99880.09;;;7.59;60.20
78117;BME280;67887;59.082;37.928;2023-04-03T00:40:25;99879.28;;;7.57;59.79
78117;BME280;67887;59.082;37.928;2023-04-03T00:42:57;99871.63;;;7.53;60.71
78117;BME280;67887;59.082;37.928;2023-04-03T00:45:34;99872.47;;;7.53;60.62
78117;BME280;67887;59.082;37.928;2023-04-03T00:48:04;99875.03;;;7.55;60.47
78117;BME280;67887;59.082;37.928;2023-04-03T00:50:35;99881.97;;;7.54;60.49
78117;BME280;67887;59.082;37.928;2023-04-03T00:53:06;99888.88;;;7.55;60.37
78117;BME280;67887;59.082;37.928;2023-04-03T00:55:35;99890.69;;;7.53;60.45
78117;BME280;67887;59.082;37.928;2023-04-03T00:58:03;99881.25;;;7.50;60.38
78117;BME280;67887;59.082;37.928;2023-04-03T01:00:30;99876.88;;;7.51;60.41
78117;BME280;67887;59.082;37.928;2023-04-03T01:02:56;99881.88;;;7.57;60.37
78117;BME280;67887;59.082;37.928;2023-04-03T01:05:24;99881.81;;;7.59;60.33
78117;BME280;67887;59.082;37.928;2023-04-03T01:07:51;99881.63;;;7.65;60.51
78117;BME280;67887;59.082;37.928;2023-04-03T01:10:19;99879.97;;;7.62;60.51
78117;BME280;67887;59.082;37.928;2023-04-03T01:12:49;99881.72;;;7.62;60.25
78117;BME280;67887;59.082;37.928;2023-04-03T01:15:22;99876.59;;;7.59;60.56
78117;BME280;67887;59.082;37.928;2023-04-03T01:17:54;99883.56;;;7.58;60.51
78117;BME280;67887;59.082;37.928;2023-04-03T01:25:45;99883.03;;;7.48;60.12
78117;BME280;67887;59.082;37.928;2023-04-03T01:28:17;99887.44;;;7.46;60.55
78117;BME280;67887;59.082;37.928;2023-04-03T01:33:27;99897.88;;;7.45;60.38
78117;BME280;67887;59.082;37.928;2023-04-03T01:35:56;99904.81;;;7.44;60.82
78117;BME280;67887;59.082;37.928;2023-04-03T01:38:23;99898.94;;;7.39;60.71
78117;BME280;67887;59.082;37.928;2023-04-03T01:40:49;99901.63;;;7.36;60.41
78117;BME280;67887;59.082;37.928;2023-04-03T01:43:16;99893.88;;;7.35;60.36
78117;BME280;67887;59.082;37.928;2023-04-03T01:45:42;99898.19;;;7.36;60.79
78117;BME280;67887;59.082;37.928;2023-04-03T01:48:09;99890.38;;;7.36;60.70
78117;BME280;67887;59.082;37.928;2023-04-03T01:50:36;99891.19;;;7.38;60.51
78117;BME280;67887;59.082;37.928;2023-04-03T01:53:02;99905.81;;;7.40;60.60
78117;BME280;67887;59.082;37.928;2023-04-03T01:55:29;99906.69;;;7.41;60.37
78117;BME280;67887;59.082;37.928;2023-04-03T01:57:55;99912.66;;;7.43;60.56
78117;BME280;67887;59.082;37.928;2023-04-03T02:00:21;99907.44;;;7.44;60.49
78117;BME280;67887;59.082;37.928;2023-04-03T02:02:47;99923.03;;;7.44;60.72
78117;BME280;67887;59.082;37.928;2023-04-03T02:05:15;99922.06;;;7.47;60.60
78117;BME280;67887;59.082;37.928;2023-04-03T02:07:41;99911.81;;;7.42;60.47
78117;BME280;67887;59.082;37.928;2023-04-03T02:10:08;99922.22;;;7.42;60.92
78117;BME280;67887;59.082;37.928;2023-04-03T02:12:34;99921.19;;;7.48;60.55
78117;BME280;67887;59.082;37.928;2023-04-03T02:15:00;99919.44;;;7.48;60.62
78117;BME280;67887;59.082;37.928;2023-04-03T02:17:26;99925.59;;;7.46;60.59
78117;BME280;67887;59.082;37.928;2023-04-03T02:19:54;99925.59;;;7.46;60.63
78117;BME280;67887;59.082;37.928;2023-04-03T02:22:20;99920.44;;;7.44;60.68
78117;BME280;67887;59.082;37.928;2023-04-03T02:24:47;99919.47;;;7.47;60.76
78117;BME280;67887;59.082;37.928;2023-04-03T02:27:13;99926.38;;;7.48;60.54
78117;BME280;67887;59.082;37.928;2023-04-03T02:29:39;99923.06;;;7.43;60.72
78117;BME280;67887;59.082;37.928;2023-04-03T02:32:06;99928.19;;;7.46;60.54
78117;BME280;67887;59.082;37.928;2023-04-03T02:34:33;99930.88;;;7.43;60.53
78117;BME280;67887;59.082;37.928;2023-04-03T02:37:00;99930.09;;;7.41;60.77
78117;BME280;67887;59.082;37.928;2023-04-03T02:39:27;99925.00;;;7.36;60.78
78117;BME280;67887;59.082;37.928;2023-04-03T02:41:54;99932.03;;;7.34;60.55
78117;BME280;67887;59.082;37.928;2023-04-03T02:44:23;99931.16;;;7.34;60.69
78117;BME280;67887;59.082;37.928;2023-04-03T02:46:50;99931.16;;;7.34;60.77
78117;BME280;67887;59.082;37.928;2023-04-03T02:49:16;99937.16;;;7.36;60.56
78117;BME280;67887;59.082;37.928;2023-04-03T02:51:43;99920.84;;;7.32;60.84
78117;BME280;67887;59.082;37.928;2023-04-03T02:54:10;99930.31;;;7.33;60.84
78117;BME280;67887;59.082;37.928;2023-04-03T02:56:40;99931.09;;;7.37;60.82
78117;BME280;67887;59.082;37.928;2023-04-03T02:59:06;99935.41;;;7.36;60.75
78117;BME280;67887;59.082;37.928;2023-04-03T03:01:34;99936.22;;;7.38;60.55
78117;BME280;67887;59.082;37.928;2023-04-03T03:04:01;99936.34;;;7.34;60.92
78117;BME280;67887;59.082;37.928;2023-04-03T03:06:28;99947.66;;;7.33;61.09
78117;BME280;67887;59.082;37.928;2023-04-03T03:08:54;99942.56;;;7.29;61.30
78117;BME280;67887;59.082;37.928;2023-04-03T03:11:20;99955.47;;;7.33;60.77
78117;BME280;67887;59.082;37.928;2023-04-03T03:13:47;99961.53;;;7.32;60.85
78117;BME280;67887;59.082;37.928;2023-04-03T03:16:13;99953.72;;;7.33;61.26
78117;BME280;67887;59.082;37.928;2023-04-03T03:18:39;99954.47;;;7.37;60.79
78117;BME280;67887;59.082;37.928;2023-04-03T03:21:05;99950.97;;;7.38;61.16
78117;BME280;67887;59.082;37.928;2023-04-03T03:23:32;99942.22;;;7.40;60.96
78117;BME280;67887;59.082;37.928;2023-04-03T03:26:04;99957.88;;;7.39;60.97
78117;BME280;67887;59.082;37.928;2023-04-03T03:28:32;99961.28;;;7.41;60.74
78117;BME280;67887;59.082;37.928;2023-04-03T03:30:59;99971.59;;;7.42;60.61
78117;BME280;67887;59.082;37.928;2023-04-03T03:33:26;99962.06;;;7.43;61.15
78117;BME280;67887;59.082;37.928;2023-04-03T03:35:53;99963.81;;;7.42;60.90
78117;BME280;67887;59.082;37.928;2023-04-03T03:38:20;99966.38;;;7.44;61.48
78117;BME280;67887;59.082;37.928;2023-04-03T03:40:47;99969.72;;;7.47;61.35
78117;BME280;67887;59.082;37.928;2023-04-03T03:43:16;99968.69;;;7.53;60.93
78117;BME280;67887;59.082;37.928;2023-04-03T03:45:42;99960.06;;;7.51;60.96
78117;BME280;67887;59.082;37.928;2023-04-03T03:48:09;99969.47;;;7.55;61.04
78117;BME280;67887;59.082;37.928;2023-04-03T03:50:35;99965.97;;;7.56;61.12
78117;BME280;67887;59.082;37.928;2023-04-03T03:53:01;99953.19;;;7.50;61.25
78117;BME280;67887;59.082;37.928;2023-04-03T03:55:28;99971.97;;;7.58;61.18
78117;BME280;67887;59.082;37.928;2023-04-03T03:57:57;99968.69;;;7.53;60.90
78117;BME280;67887;59.082;37.928;2023-04-03T04:00:24;99972.97;;;7.54;60.99
78117;BME280;67887;59.082;37.928;2023-04-03T04:02:54;99976.28;;;7.59;60.83
78117;BME280;67887;59.082;37.928;2023-04-03T04:05:23;99978.75;;;7.64;60.78
78117;BME280;67887;59.082;37.928;2023-04-03T04:07:49;99979.72;;;7.60;61.01
78117;BME280;67887;59.082;37.928;2023-04-03T04:10:17;99973.72;;;7.58;60.85
78117;BME280;67887;59.082;37.928;2023-04-03T04:12:44;99975.38;;;7.60;61.15
78117;BME280;67887;59.082;37.928;2023-04-03T04:15:12;99984.97;;;7.58;60.95
78117;BME280;67887;59.082;37.928;2023-04-03T04:17:39;99984.09;;;7.59;61.07
78117;BME280;67887;59.082;37.928;2023-04-03T04:20:10;99977.16;;;7.58;61.03
78117;BME280;67887;59.082;37.928;2023-04-03T04:22:36;99976.38;;;7.56;61.35
78117;BME280;67887;59.082;37.928;2023-04-03T04:25:04;99967.69;;;7.57;60.80
78117;BME280;67887;59.082;37.928;2023-04-03T04:27:31;99980.56;;;7.60;61.35
78117;BME280;67887;59.082;37.928;2023-04-03T04:29:58;99988.38;;;7.60;61.32
78117;BME280;67887;59.082;37.928;2023-04-03T04:32:24;99994.50;;;7.59;61.17
78117;BME280;67887;59.082;37.928;2023-04-03T04:34:51;99996.28;;;7.57;60.87
78117;BME280;67887;59.082;37.928;2023-04-03T04:37:17;99987.56;;;7.58;60.97
78117;BME280;67887;59.082;37.928;2023-04-03T04:39:43;99996.19;;;7.60;61.08
78117;BME280;67887;59.082;37.928;2023-04-03T04:42:10;99997.94;;;7.60;61.07
78117;BME280;67887;59.082;37.928;2023-04-03T04:44:40;99988.38;;;7.60;61.29
78117;BME280;67887;59.082;37.928;2023-04-03T04:47:07;99991.88;;;7.59;61.38
78117;BME280;67887;59.082;37.928;2023-04-03T04:49:33;99999.69;;;7.59;61.43
78117;BME280;67887;59.082;37.928;2023-04-03T04:52:00;99998.75;;;7.62;61.56
78117;BME280;67887;59.082;37.928;2023-04-03T04:54:30;100007.34;;;7.64;61.62
78117;BME280;67887;59.082;37.928;2023-04-03T04:56:57;100007.13;;;7.70;61.25
78117;BME280;67887;59.082;37.928;2023-04-03T04:59:23;100004.50;;;7.71;61.39
78117;BME280;67887;59.082;37.928;2023-04-03T05:01:52;100004.50;;;7.71;61.83
78117;BME280;67887;59.082;37.928;2023-04-03T05:04:18;100014.84;;;7.73;61.04
78117;BME280;67887;59.082;37.928;2023-04-03T05:06:48;100024.41;;;7.72;61.32
78117;BME280;67887;59.082;37.928;2023-04-03T05:09:19;100028.81;;;7.70;61.12
78117;BME280;67887;59.082;37.928;2023-04-03T05:11:46;100023.66;;;7.69;61.05
78117;BME280;67887;59.082;37.928;2023-04-03T05:14:15;100024.63;;;7.65;61.31
78117;BME280;67887;59.082;37.928;2023-04-03T05:16:41;100026.28;;;7.67;61.37
78117;BME280;67887;59.082;37.928;2023-04-03T05:19:07;100025.44;;;7.67;61.43
78117;BME280;67887;59.082;37.928;2023-04-03T05:21:34;100028.00;;;7.68;61.94
78117;BME280;67887;59.082;37.928;2023-04-03T05:24:06;100039.13;;;7.72;61.80
78117;BME280;67887;59.082;37.928;2023-04-03T05:26:37;100033.78;;;7.77;61.90
78117;BME280;67887;59.082;37.928;2023-04-03T05:29:05;100036.31;;;7.80;61.50
78117;BME280;67887;59.082;37.928;2023-04-03T05:31:32;100039.66;;;7.83;61.39
78117;BME280;67887;59.082;37.928;2023-04-03T05:33:59;100037.06;;;7.83;61.37
78117;BME280;67887;59.082;37.928;2023-04-03T05:36:27;100038.72;;;7.86;61.71
78117;BME280;67887;59.082;37.928;2023-04-03T05:38:58;100041.38;;;7.84;61.30
78117;BME280;67887;59.082;37.928;2023-04-03T05:41:25;100037.06;;;7.83;61.73
78117;BME280;67887;59.082;37.928;2023-04-03T05:43:51;100043.13;;;7.84;61.47
78117;BME280;67887;59.082;37.928;2023-04-03T05:46:19;100047.38;;;7.86;61.83
78117;BME280;67887;59.082;37.928;2023-04-03T05:48:50;100048.22;;;7.87;61.72
78117;BME280;67887;59.082;37.928;2023-04-03T05:51:27;100046.56;;;7.84;61.75
78117;BME280;67887;59.082;37.928;2023-04-03T05:54:26;100052.47;;;7.89;62.10
78117;BME280;67887;59.082;37.928;2023-04-03T05:56:54;100049.91;;;7.88;61.69
78117;BME280;67887;59.082;37.928;2023-04-03T05:59:22;100048.13;;;7.90;61.49
78117;BME280;67887;59.082;37.928;2023-04-03T06:01:51;100063.56;;;7.95;61.87
78117;BME280;67887;59.082;37.928;2023-04-03T06:04:18;100060.88;;;7.98;61.89
78117;BME280;67887;59.082;37.928;2023-04-03T06:06:51;100060.88;;;7.98;61.74
78117;BME280;67887;59.082;37.928;2023-04-03T06:09:22;100064.28;;;8.00;61.39
78117;BME280;67887;59.082;37.928;2023-04-03T06:11:49;100064.06;;;8.06;62.06
78117;BME280;67887;59.082;37.928;2023-04-03T06:14:16;100065.00;;;8.05;61.44
78117;BME280;67887;59.082;37.928;2023-04-03T06:16:42;100060.59;;;8.07;62.00
78117;BME280;67887;59.082;37.928;2023-04-03T06:19:10;100064.72;;;8.12;62.12
78117;BME280;67887;59.082;37.928;2023-04-03T06:21:41;100049.88;;;8.16;61.88
78117;BME280;67887;59.082;37.928;2023-04-03T06:24:08;100068.84;;;8.20;61.61
78117;BME280;67887;59.082;37.928;2023-04-03T06:26:35;100055.03;;;8.18;61.97
78117;BME280;67887;59.082;37.928;2023-04-03T06:29:01;100047.06;;;8.22;61.49
78117;BME280;67887;59.082;37.928;2023-04-03T06:31:28;100065.94;;;8.29;61.78
78117;BME280;67887;59.082;37.928;2023-04-03T06:33:54;100058.13;;;8.29;61.93
78117;BME280;67887;59.082;37.928;2023-04-03T06:36:22;100057.97;;;8.33;61.40
78117;BME280;67887;59.082;37.928;2023-04-03T06:38:48;100066.50;;;8.37;61.93
78117;BME280;67887;59.082;37.928;2023-04-03T06:41:15;100060.34;;;8.40;61.70
78117;BME280;67887;59.082;37.928;2023-04-03T06:43:43;100055.50;;;8.55;61.79
78117;BME280;67887;59.082;37.928;2023-04-03T06:46:17;100058.00;;;8.59;61.87
78117;BME280;67887;59.082;37.928;2023-04-03T06:48:44;100068.28;;;8.63;61.60
78117;BME280;67887;59.082;37.928;2023-04-03T06:51:28;100071.69;;;8.65;61.37
78117;BME280;67887;59.082;37.928;2023-04-03T06:53:57;100082.91;;;8.67;60.92
78117;BME280;67887;59.082;37.928;2023-04-03T06:56:24;100081.13;;;8.68;61.03
78117;BME280;67887;59.082;37.928;2023-04-03T06:58:53;100081.81;;;8.73;60.75
78117;BME280;67887;59.082;37.928;2023-04-03T07:01:20;100077.69;;;8.67;61.06
78117;BME280;67887;59.082;37.928;2023-04-03T07:03:48;100091.50;;;8.69;60.94
78117;BME280;67887;59.082;37.928;2023-04-03T07:06:16;100090.72;;;8.67;61.14
78117;BME280;67887;59.082;37.928;2023-04-03T07:08:43;100090.72;;;8.67;61.30
78117;BME280;67887;59.082;37.928;2023-04-03T07:11:10;100094.19;;;8.66;61.08
78117;BME280;67887;59.082;37.928;2023-04-03T07:13:37;100099.38;;;8.68;61.46
78117;BME280;67887;59.082;37.928;2023-04-03T07:16:04;100100.22;;;8.68;61.88
78117;BME280;67887;59.082;37.928;2023-04-03T07:18:33;100104.47;;;8.71;61.42
78117;BME280;67887;59.082;37.928;2023-04-03T07:20:59;100103.47;;;8.75;61.27
78117;BME280;67887;59.082;37.928;2023-04-03T07:23:27;100102.50;;;8.78;61.37
78117;BME280;67887;59.082;37.928;2023-04-03T07:25:56;100095.47;;;8.80;61.05
78117;BME280;67887;59.082;37.928;2023-04-03T07:28:23;100101.31;;;8.86;61.17
78117;BME280;67887;59.082;37.928;2023-04-03T07:33:19;100106.16;;;8.97;60.89
78117;BME280;67887;59.082;37.928;2023-04-03T07:35:45;100110.88;;;9.11;60.82
78117;BME280;67887;59.082;37.928;2023-04-03T07:38:12;100102.38;;;9.06;60.91
78117;BME280;67887;59.082;37.928;2023-04-03T07:40:39;100110.25;;;9.04;60.49
78117;BME280;67887;59.082;37.928;2023-04-03T07:43:06;100117.22;;;9.04;60.83
78117;BME280;67887;59.082;37.928;2023-04-03T07:45:34;100117.19;;;9.05;60.36
78117;BME280;67887;59.082;37.928;2023-04-03T07:48:02;100115.41;;;9.06;60.55
78117;BME280;67887;59.082;37.928;2023-04-03T07:50:28;100122.31;;;9.07;60.50
78117;BME280;67887;59.082;37.928;2023-04-03T07:52:56;100124.19;;;9.03;61.03
78117;BME280;67887;59.082;37.928;2023-04-03T07:55:24;100130.09;;;9.08;60.66
78117;BME280;67887;59.082;37.928;2023-04-03T07:57:51;100122.22;;;9.10;60.43
78117;BME280;67887;59.082;37.928;2023-04-03T08:00:17;100114.41;;;9.10;60.23
78117;BME280;67887;59.082;37.928;2023-04-03T08:02:44;100117.69;;;9.15;61.11
78117;BME280;67887;59.082;37.928;2023-04-03T08:05:19;100115.09;;;9.15;60.55
78117;BME280;67887;59.082;37.928;2023-04-03T08:07:47;100116.03;;;9.12;60.67
78117;BME280;67887;59.082;37.928;2023-04-03T08:10:14;100125.22;;;9.23;60.36
78117;BME280;67887;59.082;37.928;2023-04-03T08:12:41;100127.72;;;9.26;60.65
78117;BME280;67887;59.082;37.928;2023-04-03T08:15:08;100120.72;;;9.28;60.40
78117;BME280;67887;59.082;37.928;2023-04-03T08:17:34;100121.44;;;9.31;60.46
78117;BME280;67887;59.082;37.928;2023-04-03T08:20:03;100123.16;;;9.32;60.38
78117;BME280;67887;59.082;37.928;2023-04-03T08:22:30;100133.47;;;9.35;60.07
78117;BME280;67887;59.082;37.928;2023-04-03T08:24:56;100127.31;;;9.36;60.40
78117;BME280;67887;59.082;37.928;2023-04-03T08:27:23;100131.69;;;9.36;60.58
78117;BME280;67887;59.082;37.928;2023-04-03T08:29:49;100142.91;;;9.38;60.44
78117;BME280;67887;59.082;37.928;2023-04-03T08:32:15;100140.47;;;9.33;60.21
78117;BME280;67887;59.082;37.928;2023-04-03T08:34:42;100140.44;;;9.35;60.55
78117;BME280;67887;59.082;37.928;2023-04-03T08:37:08;100145.56;;;9.36;60.74
78117;BME280;67887;59.082;37.928;2023-04-03T08:39:35;100137.81;;;9.35;60.91
78117;BME280;67887;59.082;37.928;2023-04-03T08:42:07;100147.28;;;9.37;60.84
78117;BME280;67887;59.082;37.928;2023-04-03T08:45:02;100154.91;;;9.44;60.63
78117;BME280;67887;59.082;37.928;2023-04-03T08:47:47;100158.34;;;9.44;60.60
78117;BME280;67887;59.082;37.928;2023-04-03T08:50:20;100163.53;;;9.46;60.37
78117;BME280;67887;59.082;37.928;2023-04-03T08:52:56;100173.06;;;9.45;60.70
78117;BME280;67887;59.082;37.928;2023-04-03T08:55:27;100168.88;;;9.41;60.67
78117;BME280;67887;59.082;37.928;2023-04-03T08:58:00;100180.06;;;9.45;60.36
78117;BME280;67887;59.082;37.928;2023-04-03T09:00:32;100187.00;;;9.46;60.73
78117;BME280;67887;59.082;37.928;2023-04-03T09:03:00;100186.25;;;9.42;60.50
78117;BME280;67887;59.082;37.928;2023-04-03T09:06:01;100175.00;;;9.40;61.07
78117;BME280;67887;59.082;37.928;2023-04-03T09:08:29;100192.13;;;9.47;60.52
78117;BME280;67887;59.082;37.928;2023-04-03T09:11:09;100193.09;;;9.45;60.43
78117;BME280;67887;59.082;37.928;2023-04-03T09:14:07;100196.66;;;9.42;60.71
78117;BME280;67887;59.082;37.928;2023-04-03T09:16:45;100210.38;;;9.47;60.95
78117;BME280;67887;59.082;37.928;2023-04-03T09:22:23;100198.47;;;9.40;60.75
78117;BME280;67887;59.082;37.928;2023-04-03T09:24:57;100203.88;;;9.59;60.64
78117;BME280;67887;59.082;37.928;2023-04-03T09:27:25;100191.00;;;9.54;60.74
78117;BME280;67887;59.082;37.928;2023-04-03T09:29:54;100197.00;;;9.56;60.79
78117;BME280;67887;59.082;37.928;2023-04-03T09:32:27;100195.16;;;9.60;60.62
78117;BME280;67887;59.082;37.928;2023-04-03T09:34:57;100202.97;;;9.60;60.95
78117;BME280;67887;59.082;37.928;2023-04-03T09:37:40;100206.38;;;9.62;60.95
78117;BME280;67887;59.082;37.928;2023-04-03T09:40:31;100208.03;;;9.65;61.06
78117;BME280;67887;59.082;37.928;2023-04-03T09:43:20;100197.53;;;9.66;61.11
78117;BME280;67887;59.082;37.928;2023-04-03T09:45:48;100207.72;;;9.72;61.07
78117;BME280;67887;59.082;37.928;2023-04-03T09:48:18;100189.53;;;9.71;61.15
78117;BME280;67887;59.082;37.928;2023-04-03T09:53:36;100193.44;;;9.83;61.17
78117;BME280;67887;59.082;37.928;2023-04-03T09:56:18;100192.44;;;9.87;61.13
78117;BME280;67887;59.082;37.928;2023-04-03T10:01:30;100200.19;;;9.88;61.17
78117;BME280;67887;59.082;37.928;2023-04-03T10:04:07;100214.59;;;9.98;61.14
78117;BME280;67887;59.082;37.928;2023-04-03T10:06:37;100208.75;;;9.92;60.67
78117;BME280;67887;59.082;37.928;2023-04-03T10:12:02;100210.44;;;9.93;61.07
78117;BME280;67887;59.082;37.928;2023-04-03T10:14:37;100211.59;;;9.86;60.96
78117;BME280;67887;59.082;37.928;2023-04-03T10:17:18;100221.94;;;9.89;61.15
78117;BME280;67887;59.082;37.928;2023-04-03T10:19:56;100221.84;;;9.90;60.99
78117;BME280;67887;59.082;37.928;2023-04-03T10:22:31;100218.34;;;9.91;61.15
78117;BME280;67887;59.082;37.928;2023-04-03T10:27:59;100213.94;;;9.93;61.31
78117;BME280;67887;59.082;37.928;2023-04-03T10:36:17;100216.59;;;9.92;61.58
78117;BME280;67887;59.082;37.928;2023-04-03T10:39:00;100215.56;;;9.96;61.15
78117;BME280;67887;59.082;37.928;2023-04-03T10:57:41;100218.78;;;10.03;61.12
78117;BME280;67887;59.082;37.928;2023-04-03T11:00:20;100228.41;;;10.02;61.32
78117;BME280;67887;59.082;37.928;2023-04-03T11:03:00;100232.75;;;10.01;61.18
78117;BME280;67887;59.082;37.928;2023-04-03T11:05:44;100231.78;;;10.04;61.47
78117;BME280;67887;59.082;37.928;2023-04-03T11:08:19;100231.06;;;10.00;61.19
78117;BME280;67887;59.082;37.928;2023-04-03T11:10:50;100240.53;;;10.03;61.04
78117;BME280;67887;59.082;37.928;2023-04-03T11:13:22;100242.34;;;10.01;61.26
78117;BME280;67887;59.082;37.928;2023-04-03T11:15:53;100245.97;;;9.97;61.24
78117;BME280;67887;59.082;37.928;2023-04-03T11:18:41;100242.34;;;10.01;61.56
78117;BME280;67887;59.082;37.928;2023-04-03T11:21:41;100243.09;;;10.05;61.37
78117;BME280;67887;59.082;37.928;2023-04-03T11:24:25;100234.47;;;10.03;61.59
78117;BME280;67887;59.082;37.928;2023-04-03T11:26:54;100231.84;;;10.03;61.18
78117;BME280;67887;59.082;37.928;2023-04-03T11:29:25;100238.66;;;10.07;61.33
78117;BME280;67887;59.082;37.928;2023-04-03T11:32:10;100242.06;;;10.09;61.45
78117;BME280;67887;59.082;37.928;2023-04-03T11:34:41;100238.66;;;10.07;61.24
78117;BME280;67887;59.082;37.928;2023-04-03T11:37:34;100245.44;;;10.11;61.27
78117;BME280;67887;59.082;37.928;2023-04-03T11:40:25;100231.72;;;10.06;61.64
78117;BME280;67887;59.082;37.928;2023-04-03T11:43:02;100240.34;;;10.08;60.90
78117;BME280;67887;59.082;37.928;2023-04-03T11:45:40;100239.56;;;10.06;61.38
78117;BME280;67887;59.082;37.928;2023-04-03T11:50:56;100233.63;;;10.02;60.85
78117;BME280;67887;59.082;37.928;2023-04-03T11:53:35;100234.28;;;10.07;61.46
78117;BME280;67887;59.082;37.928;2023-04-03T12:01:53;100245.78;;;10.01;61.44
78117;BME280;67887;59.082;37.928;2023-04-03T12:04:23;100238.13;;;9.97;61.46
78117;BME280;67887;59.082;37.928;2023-04-03T12:06:54;100246.03;;;9.95;61.48
78117;BME280;67887;59.082;37.928;2023-04-03T12:09:34;100243.34;;;9.97;61.51
78117;BME280;67887;59.082;37.928;2023-04-03T12:12:22;100253.78;;;9.97;61.92
78117;BME280;67887;59.082;37.928;2023-04-03T12:14:51;100256.38;;;9.98;61.50
78117;BME280;67887;59.082;37.928;2023-04-03T12:17:23;100263.34;;;9.98;61.75
78117;BME280;67887;59.082;37.928;2023-04-03T12:19:50;100256.38;;;9.98;61.70
78117;BME280;67887;59.082;37.928;2023-04-03T12:22:18;100266.75;;;10.00;61.62
78117;BME280;67887;59.082;37.928;2023-04-03T12:24:49;100259.03;;;9.97;61.71
78117;BME280;67887;59.082;37.928;2023-04-03T12:41:42;100263.00;;;10.07;61.63
78117;BME280;67887;59.082;37.928;2023-04-03T12:46:53;100263.00;;;10.07;61.49
78117;BME280;67887;59.082;37.928;2023-04-03T12:51:55;100270.03;;;10.05;61.66
78117;BME280;67887;59.082;37.928;2023-04-03T12:59:41;100273.31;;;10.10;61.47
78117;BME280;67887;59.082;37.928;2023-04-03T13:02:28;100275.09;;;10.10;61.70
78117;BME280;67887;59.082;37.928;2023-04-03T13:04:58;100264.88;;;10.04;61.58
78117;BME280;67887;59.082;37.928;2023-04-03T13:07:29;100266.81;;;9.98;61.83
78117;BME280;67887;59.082;37.928;2023-04-03T13:10:01;100266.06;;;9.95;61.63
78117;BME280;67887;59.082;37.928;2023-04-03T13:12:27;100275.44;;;10.00;61.54
78117;BME280;67887;59.082;37.928;2023-04-03T13:14:57;100268.66;;;9.95;61.88
78117;BME280;67887;59.082;37.928;2023-04-03T13:17:24;100271.19;;;9.98;61.82
78117;BME280;67887;59.082;37.928;2023-04-03T13:19:51;100275.47;;;9.99;61.84
78117;BME280;67887;59.082;37.928;2023-04-03T13:22:29;100267.72;;;9.97;62.00
78117;BME280;67887;59.082;37.928;2023-04-03T13:25:00;100266.84;;;9.97;61.99
78117;BME280;67887;59.082;37.928;2023-04-03T13:27:30;100273.78;;;9.98;61.79
78117;BME280;67887;59.082;37.928;2023-04-03T13:29:59;100266.97;;;9.94;61.83
78117;BME280;67887;59.082;37.928;2023-04-03T13:32:28;100272.06;;;9.97;62.10
78117;BME280;67887;59.082;37.928;2023-04-03T13:34:54;100278.09;;;9.99;61.62
78117;BME280;67887;59.082;37.928;2023-04-03T13:37:24;100271.34;;;9.93;61.85
78117;BME280;67887;59.082;37.928;2023-04-03T13:40:20;100279.97;;;9.95;62.25
78117;BME280;67887;59.082;37.928;2023-04-03T13:43:00;100273.16;;;9.91;62.21
78117;BME280;67887;59.082;37.928;2023-04-03T13:45:28;100271.44;;;9.90;62.03
78117;BME280;67887;59.082;37.928;2023-04-03T13:48:19;100279.09;;;9.95;62.23
78117;BME280;67887;59.082;37.928;2023-04-03T13:50:59;100279.22;;;9.92;61.97
78117;BME280;67887;59.082;37.928;2023-04-03T13:53:31;100270.47;;;9.93;62.01
78117;BME280;67887;59.082;37.928;2023-04-03T13:58:31;100286.13;;;9.93;61.90
78117;BME280;67887;59.082;37.928;2023-04-03T14:01:09;100285.25;;;9.94;62.05
78117;BME280;67887;59.082;37.928;2023-04-03T14:03:45;100284.41;;;9.93;62.17
78117;BME280;67887;59.082;37.928;2023-04-03T14:06:15;100277.59;;;9.89;62.14
78117;BME280;67887;59.082;37.928;2023-04-03T14:08:44;100277.63;;;9.88;61.96
78117;BME280;67887;59.082;37.928;2023-04-03T14:11:14;100281.16;;;9.87;62.65
78117;BME280;67887;59.082;37.928;2023-04-03T14:13:42;100281.78;;;9.93;62.25
78117;BME280;67887;59.082;37.928;2023-04-03T14:16:13;100276.91;;;9.84;62.56
78117;BME280;67887;59.082;37.928;2023-04-03T14:18:39;100283.81;;;9.85;62.51
78117;BME280;67887;59.082;37.928;2023-04-03T14:21:06;100288.91;;;9.88;62.31
78117;BME280;67887;59.082;37.928;2023-04-03T14:23:32;100294.09;;;9.90;62.03
78117;BME280;67887;59.082;37.928;2023-04-03T14:25:59;100287.34;;;9.84;62.19
78117;BME280;67887;59.082;37.928;2023-04-03T14:28:26;100294.25;;;9.85;62.29
78117;BME280;67887;59.082;37.928;2023-04-03T14:30:53;100295.19;;;9.84;62.33